Time,TemperatureF,DewpointF,PressureIn,WindDirection,WindDirectionDegrees,WindSpeedMPH,WindSpeedGustMPH,Humidity,HourlyPrecipIn,Conditions,Clouds,dailyrainin,SoftwareType,DateUTC
2013-06-02 00:00:00,74.0,49.0,-100.00,East,81,2.0,-999.0,42,0.00,,,-99.99,,2013-06-02 07:00:00,
2013-06-02 00:22:00,74.0,49.0,-100.00,East,81,2.0,-999.0,42,0.00,,,-99.99,,2013-06-02 07:22:00,
2013-06-02 00:32:00,74.0,49.0,-100.00,East,81,2.0,-999.0,42,0.00,,,-99.99,,2013-06-02 07:32:00,
2013-06-02 00:42:00,74.0,49.0,-100.00,East,81,2.0,-999.0,42,0.00,,,-99.99,,2013-06-02 07:42:00,
2013-06-02 00:52:00,74.0,49.0,-100.00,East,81,2.0,-999.0,42,0.00,,,-99.99,,2013-06-02 07:52:00,
2013-06-02 01:00:00,72.0,48.0,-100.00,ESE,107,6.0,-999.0,42,0.00,,,-99.99,,2013-06-02 08:00:00,
2013-06-02 01:22:00,72.0,48.0,-100.00,ESE,107,6.0,-999.0,42,0.00,,,-99.99,,2013-06-02 08:22:00,
2013-06-02 01:32:00,72.0,48.0,-100.00,ESE,107,6.0,-999.0,42,0.00,,,-99.99,,2013-06-02 08:32:00,
2013-06-02 01:42:00,72.0,48.0,-100.00,ESE,107,6.0,-999.0,42,0.00,,,-99.99,,2013-06-02 08:42:00,
2013-06-02 01:52:00,72.0,48.0,-100.00,ESE,107,6.0,-999.0,42,0.00,,,-99.99,,2013-06-02 08:52:00,
2013-06-02 02:00:00,72.0,46.0,-100.00,ESE,112,5.0,-999.0,38,0.00,,,-99.99,,2013-06-02 09:00:00,
2013-06-02 02:21:00,72.0,46.0,-100.00,ESE,112,5.0,-999.0,38,0.00,,,-99.99,,2013-06-02 09:21:00,
2013-06-02 02:33:00,72.0,46.0,-100.00,ESE,112,5.0,-999.0,38,0.00,,,-99.99,,2013-06-02 09:33:00,
2013-06-02 02:43:00,72.0,46.0,-100.00,ESE,112,5.0,-999.0,38,0.00,,,-99.99,,2013-06-02 09:43:00,
2013-06-02 02:53:00,72.0,46.0,-100.00,ESE,112,5.0,-999.0,38,0.00,,,-99.99,,2013-06-02 09:53:00,
2013-06-02 03:00:00,72.0,46.0,-100.00,East,89,4.0,-999.0,39,0.00,,,-99.99,,2013-06-02 10:00:00,
2013-06-02 03:23:00,72.0,46.0,-100.00,East,89,4.0,-999.0,39,0.00,,,-99.99,,2013-06-02 10:23:00,
2013-06-02 03:33:00,72.0,46.0,-100.00,East,89,4.0,-999.0,39,0.00,,,-99.99,,2013-06-02 10:33:00,
2013-06-02 03:42:00,72.0,46.0,-100.00,East,89,4.0,-999.0,39,0.00,,,-99.99,,2013-06-02 10:42:00,
2013-06-02 03:52:00,72.0,46.0,-100.00,East,89,4.0,-999.0,39,0.00,,,-99.99,,2013-06-02 10:52:00,
2013-06-02 04:00:00,72.0,45.0,-100.00,ESE,114,5.0,-999.0,38,0.00,,,-99.99,,2013-06-02 11:00:00,
2013-06-02 04:22:00,72.0,45.0,-100.00,ESE,114,5.0,-999.0,38,0.00,,,-99.99,,2013-06-02 11:22:00,
2013-06-02 04:32:00,72.0,45.0,-100.00,ESE,114,5.0,-999.0,38,0.00,,,-99.99,,2013-06-02 11:32:00,
2013-06-02 04:42:00,72.0,45.0,-100.00,ESE,114,5.0,-999.0,38,0.00,,,-99.99,,2013-06-02 11:42:00,
2013-06-02 04:52:00,72.0,45.0,-100.00,ESE,114,5.0,-999.0,38,0.00,,,-99.99,,2013-06-02 11:52:00,
2013-06-02 05:00:00,71.0,46.0,-100.00,West,269,2.0,-999.0,41,0.00,,,-99.99,,2013-06-02 12:00:00,
2013-06-02 05:22:00,71.0,46.0,-100.00,West,269,2.0,-999.0,41,0.00,,,-99.99,,2013-06-02 12:22:00,
2013-06-02 05:32:00,71.0,46.0,-100.00,West,269,2.0,-999.0,41,0.00,,,-99.99,,2013-06-02 12:32:00,
2013-06-02 05:42:00,71.0,46.0,-100.00,West,269,2.0,-999.0,41,0.00,,,-99.99,,2013-06-02 12:42:00,
2013-06-02 05:52:00,71.0,46.0,-100.00,West,269,2.0,-999.0,41,0.00,,,-99.99,,2013-06-02 12:52:00,
2013-06-02 06:00:00,69.0,45.0,-100.00,South,191,3.0,-999.0,42,0.00,,,-99.99,,2013-06-02 13:00:00,
2013-06-02 06:22:00,69.0,45.0,-100.00,South,191,3.0,-999.0,42,0.00,,,-99.99,,2013-06-02 13:22:00,
2013-06-02 06:32:00,69.0,45.0,-100.00,South,191,3.0,-999.0,42,0.00,,,-99.99,,2013-06-02 13:32:00,
2013-06-02 06:42:00,69.0,45.0,-100.00,South,191,3.0,-999.0,42,0.00,,,-99.99,,2013-06-02 13:42:00,
2013-06-02 06:52:00,69.0,45.0,-100.00,South,191,3.0,-999.0,42,0.00,,,-99.99,,2013-06-02 13:52:00,
2013-06-02 07:00:00,67.0,46.0,-100.00,SE,132,2.0,-999.0,47,0.00,,,-99.99,,2013-06-02 14:00:00,
2013-06-02 07:22:00,67.0,46.0,-100.00,SE,132,2.0,-999.0,47,0.00,,,-99.99,,2013-06-02 14:22:00,
2013-06-02 07:32:00,67.0,46.0,-100.00,SE,132,2.0,-999.0,47,0.00,,,-99.99,,2013-06-02 14:32:00,
2013-06-02 07:42:00,67.0,46.0,-100.00,SE,132,2.0,-999.0,47,0.00,,,-99.99,,2013-06-02 14:42:00,
2013-06-02 07:52:00,67.0,46.0,-100.00,SE,132,2.0,-999.0,47,0.00,,,-99.99,,2013-06-02 14:52:00,
2013-06-02 08:00:00,74.0,48.0,-100.00,SW,229,2.0,-999.0,39,0.00,,,-99.99,,2013-06-02 15:00:00,
2013-06-02 08:22:00,74.0,48.0,-100.00,SW,229,2.0,-999.0,39,0.00,,,-99.99,,2013-06-02 15:22:00,
2013-06-02 08:33:00,74.0,48.0,-100.00,SW,229,2.0,-999.0,39,0.00,,,-99.99,,2013-06-02 15:33:00,
2013-06-02 08:43:00,74.0,48.0,-100.00,SW,229,2.0,-999.0,39,0.00,,,-99.99,,2013-06-02 15:43:00,
2013-06-02 08:53:00,74.0,48.0,-100.00,SW,229,2.0,-999.0,39,0.00,,,-99.99,,2013-06-02 15:53:00,
2013-06-02 09:00:00,80.0,47.0,-100.00,SSW,207,3.0,-999.0,32,0.00,,,-99.99,,2013-06-02 16:00:00,
2013-06-02 09:23:00,80.0,47.0,-100.00,SSW,207,3.0,-999.0,32,0.00,,,-99.99,,2013-06-02 16:23:00,
2013-06-02 09:33:00,80.0,47.0,-100.00,SSW,207,3.0,-999.0,32,0.00,,,-99.99,,2013-06-02 16:33:00,
2013-06-02 09:42:00,80.0,47.0,-100.00,SSW,207,3.0,-999.0,32,0.00,,,-99.99,,2013-06-02 16:42:00,
2013-06-02 09:52:00,80.0,47.0,-100.00,SSW,207,3.0,-999.0,32,0.00,,,-99.99,,2013-06-02 16:52:00,
2013-06-02 10:00:00,85.0,46.0,-100.00,SW,224,6.0,-999.0,25,0.00,,,-99.99,,2013-06-02 17:00:00,
2013-06-02 10:23:00,85.0,46.0,-100.00,SW,224,6.0,-999.0,25,0.00,,,-99.99,,2013-06-02 17:23:00,
2013-06-02 10:32:00,85.0,46.0,-100.00,SW,224,6.0,-999.0,25,0.00,,,-99.99,,2013-06-02 17:32:00,
2013-06-02 10:42:00,85.0,46.0,-100.00,SW,224,6.0,-999.0,25,0.00,,,-99.99,,2013-06-02 17:42:00,
2013-06-02 10:52:00,85.0,46.0,-100.00,SW,224,6.0,-999.0,25,0.00,,,-99.99,,2013-06-02 17:52:00,
2013-06-02 11:00:00,88.0,49.0,-100.00,WSW,240,6.0,-999.0,26,0.00,,,-99.99,,2013-06-02 18:00:00,
2013-06-02 11:22:00,88.0,49.0,-100.00,WSW,240,6.0,-999.0,26,0.00,,,-99.99,,2013-06-02 18:22:00,
2013-06-02 11:32:00,88.0,49.0,-100.00,WSW,240,6.0,-999.0,26,0.00,,,-99.99,,2013-06-02 18:32:00,
2013-06-02 11:42:00,88.0,49.0,-100.00,WSW,240,6.0,-999.0,26,0.00,,,-99.99,,2013-06-02 18:42:00,
2013-06-02 11:52:00,88.0,49.0,-100.00,WSW,240,6.0,-999.0,26,0.00,,,-99.99,,2013-06-02 18:52:00,
2013-06-02 12:00:00,90.0,47.0,-100.00,South,191,6.0,-999.0,23,0.00,,,-99.99,,2013-06-02 19:00:00,
2013-06-02 12:22:00,90.0,47.0,-100.00,South,191,6.0,-999.0,23,0.00,,,-99.99,,2013-06-02 19:22:00,
2013-06-02 12:32:00,90.0,47.0,-100.00,South,191,6.0,-999.0,23,0.00,,,-99.99,,2013-06-02 19:32:00,
2013-06-02 12:42:00,90.0,47.0,-100.00,South,191,6.0,-999.0,23,0.00,,,-99.99,,2013-06-02 19:42:00,
2013-06-02 12:52:00,90.0,47.0,-100.00,South,191,6.0,-999.0,23,0.00,,,-99.99,,2013-06-02 19:52:00,
2013-06-02 13:00:00,94.0,48.0,-100.00,SW,229,10.0,-999.0,20,0.00,,,-99.99,,2013-06-02 20:00:00,
2013-06-02 13:22:00,94.0,48.0,-100.00,SW,229,10.0,-999.0,20,0.00,,,-99.99,,2013-06-02 20:22:00,
2013-06-02 13:32:00,94.0,48.0,-100.00,SW,229,10.0,-999.0,20,0.00,,,-99.99,,2013-06-02 20:32:00,
2013-06-02 13:42:00,94.0,48.0,-100.00,SW,229,10.0,-999.0,20,0.00,,,-99.99,,2013-06-02 20:42:00,
2013-06-02 13:52:00,94.0,48.0,-100.00,SW,229,10.0,-999.0,20,0.00,,,-99.99,,2013-06-02 20:52:00,
2013-06-02 14:00:00,96.0,45.0,-100.00,WNW,303,7.0,-999.0,17,0.00,,,-99.99,,2013-06-02 21:00:00,
2013-06-02 14:22:00,96.0,45.0,-100.00,WNW,303,7.0,-999.0,17,0.00,,,-99.99,,2013-06-02 21:22:00,
2013-06-02 14:33:00,96.0,45.0,-100.00,WNW,303,7.0,-999.0,17,0.00,,,-99.99,,2013-06-02 21:33:00,
2013-06-02 14:42:00,96.0,45.0,-100.00,WNW,303,7.0,-999.0,17,0.00,,,-99.99,,2013-06-02 21:42:00,
2013-06-02 14:53:00,96.0,45.0,-100.00,WNW,303,7.0,-999.0,17,0.00,,,-99.99,,2013-06-02 21:53:00,
2013-06-02 15:00:00,98.0,43.0,-100.00,NW,314,10.0,-999.0,15,0.00,,,-99.99,,2013-06-02 22:00:00,
2013-06-02 15:23:00,98.0,43.0,-100.00,NW,314,10.0,-999.0,15,0.00,,,-99.99,,2013-06-02 22:23:00,
2013-06-02 15:33:00,98.0,43.0,-100.00,NW,314,10.0,-999.0,15,0.00,,,-99.99,,2013-06-02 22:33:00,
2013-06-02 15:42:00,98.0,43.0,-100.00,NW,314,10.0,-999.0,15,0.00,,,-99.99,,2013-06-02 22:42:00,
2013-06-02 15:52:00,98.0,43.0,-100.00,NW,314,10.0,-999.0,15,0.00,,,-99.99,,2013-06-02 22:52:00,
2013-06-02 16:00:00,99.0,43.0,-100.00,West,278,10.0,-999.0,14,0.00,,,-99.99,,2013-06-02 23:00:00,
2013-06-02 16:22:00,99.0,43.0,-100.00,West,278,10.0,-999.0,14,0.00,,,-99.99,,2013-06-02 23:22:00,
2013-06-02 16:32:00,99.0,43.0,-100.00,West,278,10.0,-999.0,14,0.00,,,-99.99,,2013-06-02 23:32:00,
2013-06-02 16:42:00,99.0,43.0,-100.00,West,278,10.0,-999.0,14,0.00,,,-99.99,,2013-06-02 23:42:00,
2013-06-02 16:52:00,99.0,43.0,-100.00,West,278,10.0,-999.0,14,0.00,,,-99.99,,2013-06-02 23:52:00,
2013-06-02 17:00:00,99.0,47.0,-100.00,NW,320,7.0,-999.0,17,0.00,,,-99.99,,2013-06-03 00:00:00,
2013-06-02 17:22:00,99.0,47.0,-100.00,NW,320,7.0,-999.0,17,0.00,,,-99.99,,2013-06-03 00:22:00,
2013-06-02 17:32:00,99.0,47.0,-100.00,NW,320,7.0,-999.0,17,0.00,,,-99.99,,2013-06-03 00:32:00,
2013-06-02 17:42:00,99.0,47.0,-100.00,NW,320,7.0,-999.0,17,0.00,,,-99.99,,2013-06-03 00:42:00,
2013-06-02 17:52:00,99.0,47.0,-100.00,NW,320,7.0,-999.0,17,0.00,,,-99.99,,2013-06-03 00:52:00,
2013-06-02 18:00:00,99.0,43.0,-100.00,WNW,301,7.0,-999.0,15,0.00,,,-99.99,,2013-06-03 01:00:00,
2013-06-02 18:21:00,99.0,43.0,-100.00,WNW,301,7.0,-999.0,15,0.00,,,-99.99,,2013-06-03 01:21:00,
2013-06-02 18:32:00,99.0,43.0,-100.00,WNW,301,7.0,-999.0,15,0.00,,,-99.99,,2013-06-03 01:32:00,
2013-06-02 18:42:00,99.0,43.0,-100.00,WNW,301,7.0,-999.0,15,0.00,,,-99.99,,2013-06-03 01:42:00,
2013-06-02 18:52:00,99.0,43.0,-100.00,WNW,301,7.0,-999.0,15,0.00,,,-99.99,,2013-06-03 01:52:00,
2013-06-02 19:00:00,98.0,43.0,-100.00,NNW,331,7.0,-999.0,15,0.00,,,-99.99,,2013-06-03 02:00:00,
2013-06-02 19:22:00,98.0,43.0,-100.00,NNW,331,7.0,-999.0,15,0.00,,,-99.99,,2013-06-03 02:22:00,
2013-06-02 19:32:00,98.0,43.0,-100.00,NNW,331,7.0,-999.0,15,0.00,,,-99.99,,2013-06-03 02:32:00,
2013-06-02 19:42:00,98.0,43.0,-100.00,NNW,331,7.0,-999.0,15,0.00,,,-99.99,,2013-06-03 02:42:00,
2013-06-02 19:52:00,98.0,43.0,-100.00,NNW,331,7.0,-999.0,15,0.00,,,-99.99,,2013-06-03 02:52:00,
2013-06-02 20:00:00,97.0,43.0,-100.00,NW,315,4.0,-999.0,15,0.00,,,-99.99,,2013-06-03 03:00:00,
2013-06-02 20:22:00,97.0,43.0,-100.00,NW,315,4.0,-999.0,15,0.00,,,-99.99,,2013-06-03 03:22:00,
2013-06-02 20:33:00,97.0,43.0,-100.00,NW,315,4.0,-999.0,15,0.00,,,-99.99,,2013-06-03 03:33:00,
2013-06-02 20:43:00,97.0,43.0,-100.00,NW,315,4.0,-999.0,15,0.00,,,-99.99,,2013-06-03 03:43:00,
2013-06-02 20:53:00,97.0,43.0,-100.00,NW,315,4.0,-999.0,15,0.00,,,-99.99,,2013-06-03 03:53:00,
2013-06-02 21:00:00,85.0,47.0,-100.00,WSW,256,9.0,-999.0,26,0.00,,,-99.99,,2013-06-03 04:00:00,
2013-06-02 21:23:00,85.0,47.0,-100.00,WSW,256,9.0,-999.0,26,0.00,,,-99.99,,2013-06-03 04:23:00,
2013-06-02 21:33:00,85.0,47.0,-100.00,WSW,256,9.0,-999.0,26,0.00,,,-99.99,,2013-06-03 04:33:00,
2013-06-02 21:42:00,85.0,47.0,-100.00,WSW,256,9.0,-999.0,26,0.00,,,-99.99,,2013-06-03 04:42:00,
2013-06-02 21:53:00,85.0,47.0,-100.00,WSW,256,9.0,-999.0,26,0.00,,,-99.99,,2013-06-03 04:53:00,
2013-06-02 22:00:00,80.0,48.0,-100.00,SE,133,5.0,-999.0,32,0.00,,,-99.99,,2013-06-03 05:00:00,
2013-06-02 22:22:00,80.0,48.0,-100.00,SE,133,5.0,-999.0,32,0.00,,,-99.99,,2013-06-03 05:22:00,
2013-06-02 22:32:00,80.0,48.0,-100.00,SE,133,5.0,-999.0,32,0.00,,,-99.99,,2013-06-03 05:32:00,
2013-06-02 22:43:00,80.0,48.0,-100.00,SE,133,5.0,-999.0,32,0.00,,,-99.99,,2013-06-03 05:43:00,
2013-06-02 22:52:00,80.0,48.0,-100.00,SE,133,5.0,-999.0,32,0.00,,,-99.99,,2013-06-03 05:52:00,
2013-06-02 23:00:00,78.0,46.0,-100.00,South,177,6.0,-999.0,33,0.00,,,-99.99,,2013-06-03 06:00:00,
2013-06-02 23:22:00,78.0,46.0,-100.00,South,177,6.0,-999.0,33,0.00,,,-99.99,,2013-06-03 06:22:00,
2013-06-02 23:32:00,78.0,46.0,-100.00,South,177,6.0,-999.0,33,0.00,,,-99.99,,2013-06-03 06:32:00,
2013-06-02 23:42:00,78.0,46.0,-100.00,South,177,6.0,-999.0,33,0.00,,,-99.99,,2013-06-03 06:42:00,
2013-06-02 23:52:00,78.0,46.0,-100.00,South,177,6.0,-999.0,33,0.00,,,-99.99,,2013-06-03 06:52:00,